createdAt,value
2018-10-12T00:01:51.503Z,100946.39
2018-10-12T00:04:17.469Z,100945.44
2018-10-12T00:06:43.449Z,100945.07
2018-10-12T00:09:09.425Z,100945.44
2018-10-12T00:11:35.397Z,100949.39
2018-10-12T00:14:01.374Z,100942.79
2018-10-12T00:16:27.381Z,100948.90
2018-10-12T00:18:53.339Z,100955.02
2018-10-12T00:21:19.311Z,100961.12
2018-10-12T00:23:45.283Z,100968.92
2018-10-12T00:26:11.250Z,100977.84
2018-10-12T00:28:37.213Z,100980.95
2018-10-12T00:31:03.200Z,100980.13
2018-10-12T00:33:29.158Z,100983.59
2018-10-12T00:35:55.128Z,100988.55
2018-10-12T00:38:21.120Z,100984.09
2018-10-12T00:40:47.095Z,100984.72
2018-10-12T00:43:13.053Z,100987.86
2018-10-12T00:45:39.051Z,100991.33
2018-10-12T00:48:05.023Z,100997.25
2018-10-12T00:50:31.011Z,100995.09
2018-10-12T00:52:57.073Z,100999.89
2018-10-12T00:55:23.035Z,100998.93
2018-10-12T00:57:49.035Z,101003.85
2018-10-12T01:00:15.018Z,101007.36
2018-10-12T01:02:41.071Z,101015.75
2018-10-12T01:05:07.061Z,101014.42
2018-10-12T01:07:33.057Z,101004.02
2018-10-12T01:09:59.037Z,100998.11
2018-10-12T01:12:25.047Z,101005.05
2018-10-12T01:14:51.020Z,101007.69
2018-10-12T01:17:17.992Z,101005.73
2018-10-12T01:19:43.954Z,101003.59
2018-10-12T01:22:09.914Z,101010.83
2018-10-12T01:24:35.876Z,101017.77
2018-10-12T01:27:01.842Z,101015.61
2018-10-12T01:29:27.809Z,101018.39
2018-10-12T01:31:53.777Z,101015.75
2018-10-12T01:34:19.738Z,100998.73
2018-10-12T01:36:45.694Z,101004.66
2018-10-12T01:39:11.727Z,101000.88
2018-10-12T01:41:37.756Z,100996.42
2018-10-12T01:44:03.701Z,101002.70
2018-10-12T01:46:29.688Z,100982.19
2018-10-12T01:48:55.664Z,100984.83
2018-10-12T01:51:21.652Z,100990.61
2018-10-12T01:53:47.651Z,100998.87
2018-10-12T01:56:13.705Z,101006.99
2018-10-12T01:58:39.725Z,101007.36
2018-10-12T02:01:05.699Z,101004.71
2018-10-12T02:03:31.726Z,101018.89
2018-10-12T02:05:57.685Z,101024.04
2018-10-12T02:08:23.664Z,101025.49
2018-10-12T02:10:49.628Z,101030.78
2018-10-12T02:13:15.602Z,101039.70
2018-10-12T02:15:41.560Z,101036.06
2018-10-12T02:18:07.571Z,101029.95
2018-10-12T02:20:33.522Z,101031.58
2018-10-12T02:22:59.523Z,101025.80
2018-10-12T02:25:25.473Z,101024.47
2018-10-12T02:27:51.447Z,101024.97
2018-10-12T02:30:17.416Z,101034.35
2018-10-12T02:32:43.396Z,101043.11
2018-10-12T02:35:09.378Z,101050.58
2018-10-12T02:37:35.390Z,101058.50
2018-10-12T02:40:01.357Z,101050.91
2018-10-12T02:42:27.355Z,101047.14
2018-10-12T02:44:53.350Z,101047.97
2018-10-12T02:47:19.309Z,101056.25
2018-10-12T02:49:45.265Z,101049.78
2018-10-12T02:52:11.251Z,101064.81
2018-10-12T02:54:37.244Z,101068.28
2018-10-12T02:57:03.273Z,101069.94
2018-10-12T02:59:29.328Z,101070.10
2018-10-12T03:01:55.332Z,101071.72
2018-10-12T03:04:21.328Z,101076.70
2018-10-12T03:06:47.295Z,101086.45
2018-10-12T03:09:13.356Z,101087.28
2018-10-12T03:11:39.350Z,101096.03
2018-10-12T03:14:05.341Z,101101.81
2018-10-12T03:16:32.287Z,101102.52
2018-10-12T03:18:58.287Z,101098.19
2018-10-12T03:21:24.251Z,101101.66
2018-10-12T03:23:50.209Z,101098.68
2018-10-12T03:26:16.160Z,101095.05
2018-10-12T03:28:42.120Z,101099.21
2018-10-12T03:31:08.069Z,101107.30
2018-10-12T03:33:34.026Z,101118.20
2018-10-12T03:36:00.034Z,101123.50
2018-10-12T03:38:26.003Z,101129.61
2018-10-12T03:40:52.140Z,101114.87
2018-10-12T03:43:18.102Z,101119.33
2018-10-12T03:45:44.067Z,101121.15
2018-10-12T03:48:10.046Z,101117.52
2018-10-12T03:50:36.012Z,101123.16
2018-10-12T03:53:01.978Z,101123.16
2018-10-12T03:55:27.961Z,101131.59
2018-10-12T03:57:54.009Z,101135.39
2018-10-12T04:00:19.978Z,101139.36
2018-10-12T04:02:45.947Z,101144.81
2018-10-12T04:05:11.990Z,101149.93
2018-10-12T04:07:37.963Z,101150.76
2018-10-12T04:10:03.918Z,101151.41
2018-10-12T04:12:30.016Z,101157.03
2018-10-12T04:14:55.879Z,101160.01
2018-10-12T04:17:21.895Z,101161.00
2018-10-12T04:19:47.884Z,101170.75
2018-10-12T04:22:13.922Z,101170.75
2018-10-12T04:24:39.890Z,101178.05
2018-10-12T04:27:05.881Z,101176.03
2018-10-12T04:29:31.972Z,101169.06
2018-10-12T04:31:57.937Z,101172.89
2018-10-12T04:34:23.949Z,101167.27
2018-10-12T04:36:49.909Z,101164.97
2018-10-12T04:39:15.894Z,101167.90
2018-10-12T04:41:41.877Z,101184.45
2018-10-12T04:44:07.847Z,101192.72
2018-10-12T04:46:33.832Z,101202.10
2018-10-12T04:48:59.788Z,101200.65
2018-10-12T04:51:25.751Z,101208.70
2018-10-12T04:53:51.762Z,101202.59
2018-10-12T04:56:17.716Z,101202.96
2018-10-12T04:58:43.696Z,101203.59
2018-10-12T05:01:09.798Z,101209.08
2018-10-12T05:03:35.723Z,101209.41
2018-10-12T05:06:01.756Z,101213.86
2018-10-12T05:08:27.790Z,101220.81
2018-10-12T05:10:53.782Z,101228.07
2018-10-12T05:13:19.756Z,101229.52
2018-10-12T05:15:45.728Z,101222.42
2018-10-12T05:18:11.719Z,101231.55
2018-10-12T05:20:37.703Z,101233.36
2018-10-12T05:23:03.660Z,101231.83
2018-10-12T05:25:29.649Z,101243.36
2018-10-12T05:27:55.639Z,101246.99
2018-10-12T05:30:21.709Z,101251.30
2018-10-12T05:32:47.783Z,101253.11
2018-10-12T05:35:13.756Z,101255.75
2018-10-12T05:37:39.726Z,101260.55
2018-10-12T05:40:05.698Z,101269.17
2018-10-12T05:42:31.679Z,101269.30
2018-10-12T05:44:57.664Z,101273.14
2018-10-12T05:47:23.647Z,101274.95
2018-10-12T05:49:49.624Z,101274.13
2018-10-12T05:52:15.585Z,101281.41
2018-10-12T05:54:41.562Z,101283.59
2018-10-12T05:57:07.541Z,101281.89
2018-10-12T05:59:33.497Z,101285.86
2018-10-12T06:01:59.464Z,101285.66
2018-10-12T06:04:25.423Z,101290.81
2018-10-12T06:06:51.402Z,101285.66
2018-10-12T06:09:17.423Z,101284.49
2018-10-12T06:11:43.372Z,101283.63
2018-10-12T06:14:09.355Z,101294.08
2018-10-12T06:16:35.345Z,101293.38
2018-10-12T06:19:01.353Z,101289.78
2018-10-12T06:21:27.394Z,101293.80
2018-10-12T06:23:53.313Z,101299.58
2018-10-12T06:26:19.283Z,101298.95
2018-10-12T06:28:45.256Z,101298.59
2018-10-12T06:31:11.243Z,101312.45
2018-10-12T06:33:37.236Z,101325.88
2018-10-12T06:36:03.196Z,101339.64
2018-10-12T06:38:29.176Z,101342.41
2018-10-12T06:40:55.251Z,101344.59
2018-10-12T06:43:21.186Z,101363.22
2018-10-12T06:45:47.153Z,101366.36
2018-10-12T06:48:13.136Z,101363.72
2018-10-12T06:50:39.223Z,101368.17
2018-10-12T06:53:05.219Z,101375.73
2018-10-12T06:55:31.204Z,101381.39
2018-10-12T06:57:57.444Z,101385.82
2018-10-12T07:00:23.410Z,101379.58
2018-10-12T07:02:49.387Z,101379.70
2018-10-12T07:05:15.342Z,101393.63
2018-10-12T07:07:41.440Z,101394.61
2018-10-12T07:10:07.420Z,101396.27
2018-10-12T07:12:33.391Z,101393.63
2018-10-12T07:14:59.516Z,101397.59
2018-10-12T07:17:25.527Z,101401.22
2018-10-12T07:19:51.480Z,101398.08
2018-10-12T07:22:17.759Z,101408.87
2018-10-12T07:24:43.846Z,101412.47
2018-10-12T07:27:09.811Z,101414.77
2018-10-12T07:29:35.780Z,101418.95
2018-10-12T07:32:01.786Z,101420.77
2018-10-12T07:34:27.744Z,101422.58
2018-10-12T07:36:53.708Z,101427.38
2018-10-12T07:39:19.673Z,101428.83
2018-10-12T07:41:45.731Z,101433.62
2018-10-12T07:44:11.681Z,101439.40
2018-10-12T07:46:37.674Z,101440.22
2018-10-12T07:49:03.783Z,101446.50
2018-10-12T07:51:29.741Z,101453.94
2018-10-12T07:53:55.753Z,101450.80
2018-10-12T07:56:21.776Z,101451.78
2018-10-12T07:58:47.804Z,101455.14
2018-10-12T08:01:13.781Z,101450.67
2018-10-12T08:03:39.744Z,101452.83
2018-10-12T08:06:05.883Z,101451.50
2018-10-12T08:08:31.847Z,101450.80
2018-10-12T08:10:57.898Z,101460.42
2018-10-12T08:13:23.883Z,101456.09
2018-10-12T08:15:49.865Z,101459.59
2018-10-12T08:18:15.841Z,101465.71
2018-10-12T08:20:41.828Z,101459.09
2018-10-12T08:23:07.818Z,101470.16
2018-10-12T08:25:33.940Z,101466.66
2018-10-12T08:27:59.780Z,101473.64
2018-10-12T08:30:25.739Z,101473.98
2018-10-12T08:32:51.702Z,101478.93
2018-10-12T08:35:17.660Z,101482.89
2018-10-12T08:37:43.623Z,101484.92
2018-10-12T08:40:09.580Z,101487.20
2018-10-12T08:42:35.559Z,101490.70
2018-10-12T08:45:01.567Z,101497.06
2018-10-12T08:47:27.534Z,101485.53
2018-10-12T08:49:53.494Z,101489.84
2018-10-12T08:52:19.480Z,101492.48
2018-10-12T08:54:45.438Z,101491.31
2018-10-12T08:57:11.439Z,101494.42
2018-10-12T08:59:37.404Z,101492.15
2018-10-12T09:02:03.353Z,101491.78
2018-10-12T09:04:29.319Z,101492.48
2018-10-12T09:06:55.427Z,101495.99
2018-10-12T09:09:21.389Z,101489.50
2018-10-12T09:11:47.351Z,101497.06
2018-10-12T09:14:13.288Z,101496.94
2018-10-12T09:16:39.251Z,101499.59
2018-10-12T09:19:05.213Z,101501.89
2018-10-12T09:21:31.171Z,101498.64
2018-10-12T09:23:57.128Z,101495.13
2018-10-12T09:26:23.085Z,101498.27
2018-10-12T09:28:49.074Z,101500.08
2018-10-12T09:31:15.061Z,101493.47
2018-10-12T09:33:41.073Z,101486.86
2018-10-12T09:36:07.024Z,101485.42
2018-10-12T09:38:32.987Z,101485.42
2018-10-12T09:40:58.956Z,101488.39
2018-10-12T09:43:24.950Z,101486.24
2018-10-12T09:45:50.920Z,101492.86
2018-10-12T09:48:16.864Z,101487.08
2018-10-12T09:50:42.841Z,101484.43
2018-10-12T09:53:08.813Z,101489.23
2018-10-12T09:55:34.811Z,101488.52
2018-10-12T09:58:00.770Z,101487.69
2018-10-12T10:00:26.753Z,101488.52
2018-10-12T10:02:52.748Z,101483.11
2018-10-12T10:05:18.693Z,101481.45
2018-10-12T10:07:44.834Z,101477.48
2018-10-12T10:10:10.671Z,101476.99
2018-10-12T10:12:36.649Z,101476.63
2018-10-12T10:15:02.608Z,101471.48
2018-10-12T10:17:28.571Z,101466.91
2018-10-12T10:19:54.620Z,101457.01
2018-10-12T10:22:20.637Z,101450.89
2018-10-12T10:24:46.536Z,101454.52
2018-10-12T10:27:12.760Z,101445.11
2018-10-12T10:29:38.716Z,101446.09
2018-10-12T10:32:04.764Z,101439.00
2018-10-12T10:34:30.669Z,101438.04
2018-10-12T10:36:56.640Z,101435.39
2018-10-12T10:39:22.629Z,101440.90
2018-10-12T10:41:48.596Z,101437.55
2018-10-12T10:44:14.653Z,101441.52
2018-10-12T10:46:40.620Z,101433.09
2018-10-12T10:49:06.581Z,101438.04
2018-10-12T10:51:32.558Z,101436.84
2018-10-12T10:53:58.523Z,101432.26
2018-10-12T10:56:24.503Z,101429.13
2018-10-12T10:58:50.537Z,101430.11
2018-10-12T11:01:16.514Z,101425.98
2018-10-12T11:03:42.481Z,101422.52
2018-10-12T11:06:08.515Z,101424.54
2018-10-12T11:08:34.484Z,101422.84
2018-10-12T11:11:00.438Z,101420.36
2018-10-12T11:13:26.441Z,101411.81
2018-10-12T11:15:52.430Z,101413.97
2018-10-12T11:18:18.429Z,101413.97
2018-10-12T11:20:45.759Z,101413.47
2018-10-12T11:23:11.950Z,101420.42
2018-10-12T11:25:38.061Z,101416.81
2018-10-12T11:28:04.112Z,101412.70
2018-10-12T11:30:30.155Z,101415.84
2018-10-12T11:32:56.264Z,101410.91
2018-10-12T11:35:22.144Z,101403.10
2018-10-12T11:37:48.123Z,101409.09
2018-10-12T11:40:14.077Z,101405.63
2018-10-12T11:42:40.044Z,101407.77
2018-10-12T11:45:07.121Z,101401.66
2018-10-12T11:47:33.015Z,101404.64
2018-10-12T11:49:58.982Z,101402.13
2018-10-12T11:52:24.941Z,101396.91
2018-10-12T11:54:50.913Z,101392.95
2018-10-12T11:57:16.941Z,101395.59
2018-10-12T11:59:42.898Z,101388.16
2018-10-12T12:02:08.857Z,101388.16
2018-10-12T12:04:34.828Z,101389.60
2018-10-12T12:07:00.820Z,101393.11
2018-10-12T12:09:26.827Z,101383.20
2018-10-12T12:11:52.790Z,101394.64
2018-10-12T12:14:18.774Z,101391.00
2018-10-12T12:16:44.756Z,101389.34
2018-10-12T12:19:10.766Z,101398.11
2018-10-12T12:21:36.753Z,101385.38
2018-10-12T12:24:02.724Z,101387.66
2018-10-12T12:26:28.686Z,101377.91
2018-10-12T12:28:54.771Z,101380.22
2018-10-12T12:31:20.750Z,101383.56
2018-10-12T12:33:46.836Z,101377.91
2018-10-12T12:36:12.992Z,101387.17
2018-10-12T12:38:38.794Z,101377.24
2018-10-12T12:41:04.764Z,101375.55
2018-10-12T12:43:30.727Z,101379.89
2018-10-12T12:45:56.779Z,101376.25
2018-10-12T12:48:23.092Z,101377.08
2018-10-12T12:50:48.729Z,101383.20
2018-10-12T12:53:14.744Z,101385.02
2018-10-12T12:55:40.726Z,101379.89
2018-10-12T12:58:06.697Z,101379.89
2018-10-12T13:00:32.729Z,101391.13
2018-10-12T13:03:00.726Z,101388.03
2018-10-12T13:05:26.693Z,101385.72
2018-10-12T13:07:52.660Z,101377.78
2018-10-12T13:10:18.789Z,101377.24
2018-10-12T13:12:44.776Z,101379.89
2018-10-12T13:15:10.737Z,101375.92
2018-10-12T13:17:36.736Z,101388.44
2018-10-12T13:20:02.711Z,101388.16
2018-10-12T13:22:28.660Z,101383.41
2018-10-12T13:24:54.619Z,101392.83
2018-10-12T13:27:20.584Z,101395.80
2018-10-12T13:29:46.634Z,101389.69
2018-10-12T13:32:12.608Z,101394.97
2018-10-12T13:34:38.588Z,101397.49
2018-10-12T13:37:04.552Z,101398.94
2018-10-12T13:39:30.523Z,101407.00
2018-10-12T13:41:56.489Z,101409.64
2018-10-12T13:44:22.454Z,101411.83
2018-10-12T13:46:48.415Z,101414.80
2018-10-12T13:49:14.359Z,101408.53
2018-10-12T13:51:40.317Z,101409.85
2018-10-12T13:54:06.825Z,101420.09
2018-10-12T13:56:32.794Z,101429.02
2018-10-12T13:58:58.758Z,101420.09
2018-10-12T14:01:24.723Z,101427.69
2018-10-12T14:03:50.687Z,101423.36
2018-10-12T14:06:16.719Z,101426.83
2018-10-12T14:08:42.708Z,101427.33
2018-10-12T14:11:08.716Z,101429.02
2018-10-12T14:13:34.727Z,101434.64
2018-10-12T14:16:00.680Z,101426.22
2018-10-12T14:18:26.773Z,101429.35
2018-10-12T14:20:52.661Z,101439.44
2018-10-12T14:23:18.624Z,101429.48
2018-10-12T14:25:44.583Z,101434.77
2018-10-12T14:28:10.638Z,101434.30
2018-10-12T14:30:36.596Z,101440.42
2018-10-12T14:33:02.587Z,101432.98
2018-10-12T14:35:28.553Z,101432.77
2018-10-12T14:37:54.571Z,101428.31
2018-10-12T14:40:20.483Z,101434.30
2018-10-12T14:42:46.464Z,101435.26
2018-10-12T14:45:12.452Z,101428.36
2018-10-12T14:47:38.421Z,101425.88
2018-10-12T14:50:04.351Z,101426.83
2018-10-12T14:52:30.317Z,101429.69
2018-10-12T14:54:56.331Z,101421.75
2018-10-12T14:57:22.276Z,101425.38
2018-10-12T14:59:48.236Z,101424.40
2018-10-12T15:02:14.222Z,101426.37
2018-10-12T15:04:40.192Z,101419.27
2018-10-12T15:07:06.150Z,101417.45
2018-10-12T15:09:32.121Z,101424.89
2018-10-12T15:11:58.082Z,101419.81
2018-10-12T15:14:24.239Z,101421.14
2018-10-12T15:16:50.336Z,101426.58
2018-10-12T15:19:21.338Z,101418.65
2018-10-12T15:21:47.293Z,101424.40
2018-10-12T15:24:13.306Z,101430.18
2018-10-12T15:26:39.288Z,101428.52
2018-10-12T15:29:05.257Z,101435.96
2018-10-12T15:31:31.214Z,101426.22
2018-10-12T15:33:57.173Z,101426.70
2018-10-12T15:36:24.186Z,101427.91
2018-10-12T15:38:50.221Z,101428.86
2018-10-12T15:41:16.239Z,101429.02
2018-10-12T15:43:42.248Z,101429.35
2018-10-12T15:46:09.252Z,101436.45
2018-10-12T15:48:35.237Z,101435.62
2018-10-12T15:51:01.275Z,101436.79
2018-10-12T15:53:28.252Z,101441.59
2018-10-12T15:55:54.315Z,101442.08
2018-10-12T15:58:20.392Z,101443.06
2018-10-12T16:00:46.354Z,101432.98
2018-10-12T16:03:12.339Z,101439.09
2018-10-12T16:05:38.433Z,101440.42
2018-10-12T16:08:04.432Z,101436.95
2018-10-12T16:10:30.391Z,101438.94
2018-10-12T16:12:56.413Z,101438.48
2018-10-12T16:15:22.377Z,101442.91
2018-10-12T16:17:48.337Z,101441.59
2018-10-12T16:20:14.370Z,101445.09
2018-10-12T16:22:41.403Z,101444.59
2018-10-12T16:25:07.426Z,101446.55
2018-10-12T16:27:33.390Z,101446.55
2018-10-12T16:29:59.372Z,101452.66
2018-10-12T16:32:25.384Z,101450.84
2018-10-12T16:34:51.356Z,101455.17
2018-10-12T16:37:17.359Z,101464.56
2018-10-12T16:39:43.364Z,101468.03
2018-10-12T16:42:09.336Z,101458.44
2018-10-12T16:44:35.320Z,101466.86
2018-10-12T16:47:01.318Z,101466.38
2018-10-12T16:49:27.313Z,101467.70
2018-10-12T16:51:53.282Z,101469.72
2018-10-12T16:54:19.239Z,101474.52
2018-10-12T16:56:45.252Z,101468.03
2018-10-12T16:59:11.240Z,101470.22
2018-10-12T17:01:37.209Z,101480.30
2018-10-12T17:04:03.236Z,101479.81
2018-10-12T17:06:29.161Z,101479.94
2018-10-12T17:08:55.137Z,101482.11
2018-10-12T17:11:21.113Z,101481.91
2018-10-12T17:13:48.242Z,101480.58
2018-10-12T17:16:14.402Z,101483.44
2018-10-12T17:18:40.413Z,101484.39
2018-10-12T17:21:06.449Z,101473.81
2018-10-12T17:23:32.471Z,101490.52
2018-10-12T17:25:59.136Z,101491.00
2018-10-12T17:28:25.121Z,101495.95
2018-10-12T17:30:51.349Z,101491.50
2018-10-12T17:33:20.562Z,101486.42
2018-10-12T17:35:47.704Z,101496.17
2018-10-12T17:38:14.951Z,101491.84
2018-10-12T17:40:41.726Z,101493.03
2018-10-12T17:43:07.729Z,101501.80
2018-10-12T17:45:34.114Z,101507.58
2018-10-12T17:48:00.580Z,101508.69
2018-10-12T17:50:26.920Z,101505.05
2018-10-12T17:52:53.227Z,101502.08
2018-10-12T17:55:19.697Z,101503.39
2018-10-12T17:57:45.848Z,101510.01
2018-10-12T18:00:13.203Z,101507.86
2018-10-12T18:02:39.744Z,101511.20
2018-10-12T18:05:06.427Z,101513.48
2018-10-12T18:07:34.407Z,101512.16
2018-10-12T18:10:01.162Z,101518.44
2018-10-12T18:12:27.351Z,101517.94
2018-10-12T18:14:54.084Z,101516.62
2018-10-12T18:17:21.590Z,101517.45
2018-10-12T18:19:47.894Z,101512.66
2018-10-12T18:22:14.311Z,101518.65
2018-10-12T18:24:40.774Z,101517.33
2018-10-12T18:27:06.847Z,101511.94
2018-10-12T18:29:32.863Z,101515.63
2018-10-12T18:31:58.958Z,101515.02
2018-10-12T18:34:25.315Z,101515.52
2018-10-12T18:36:51.423Z,101521.78
2018-10-12T18:39:17.381Z,101518.65
2018-10-12T18:41:43.377Z,101525.59
2018-10-12T18:44:09.489Z,101529.23
2018-10-12T18:46:35.587Z,101533.53
2018-10-12T18:49:01.544Z,101530.89
2018-10-12T18:51:27.530Z,101536.91
2018-10-12T18:53:53.563Z,101536.58
2018-10-12T18:56:21.525Z,101542.30
2018-10-12T18:58:47.522Z,101548.48
2018-10-12T19:01:13.490Z,101543.77
2018-10-12T19:03:39.475Z,101547.49
2018-10-12T19:06:05.475Z,101548.48
2018-10-12T19:08:31.431Z,101544.36
2018-10-12T19:10:57.404Z,101548.48
2018-10-12T19:13:23.400Z,101549.80
2018-10-12T19:15:49.444Z,101549.40
2018-10-12T19:18:15.429Z,101551.70
2018-10-12T19:20:41.634Z,101555.80
2018-10-12T19:23:07.643Z,101556.99
2018-10-12T19:25:33.686Z,101561.30
2018-10-12T19:27:59.699Z,101560.59
2018-10-12T19:30:26.410Z,101558.31
2018-10-12T19:32:52.575Z,101564.34
2018-10-12T19:35:18.630Z,101558.31
2018-10-12T19:37:44.665Z,101563.11
2018-10-12T19:40:11.334Z,101565.27
2018-10-12T19:42:38.202Z,101561.08
2018-10-12T19:45:04.588Z,101564.55
2018-10-12T19:47:32.028Z,101567.57
2018-10-12T19:49:58.051Z,101565.76
2018-10-12T19:52:24.029Z,101573.69
2018-10-12T19:54:50.148Z,101569.51
2018-10-12T19:57:16.147Z,101577.32
2018-10-12T19:59:43.037Z,101573.81
2018-10-12T20:02:09.196Z,101578.15
2018-10-12T20:04:35.860Z,101575.29
2018-10-12T20:07:01.881Z,101582.73
2018-10-12T20:09:29.041Z,101581.41
2018-10-12T20:11:55.129Z,101579.10
2018-10-12T20:14:22.268Z,101576.95
2018-10-12T20:16:48.148Z,101581.41
2018-10-12T20:19:16.923Z,101588.52
2018-10-12T20:21:43.544Z,101590.66
2018-10-12T20:24:11.047Z,101587.19
2018-10-12T20:26:37.045Z,101587.68
2018-10-12T20:29:06.829Z,101583.34
2018-10-12T20:31:32.869Z,101579.53
2018-10-12T20:33:59.658Z,101587.68
2018-10-12T20:36:26.525Z,101588.14
2018-10-12T20:38:56.627Z,101589.68
2018-10-12T20:41:23.001Z,101593.65
2018-10-12T20:43:49.567Z,101589.00
2018-10-12T20:46:18.559Z,101592.48
2018-10-12T20:48:45.420Z,101593.31
2018-10-12T20:51:11.986Z,101579.59
2018-10-12T20:53:39.235Z,101588.02
2018-10-12T20:56:05.215Z,101585.50
2018-10-12T20:58:31.231Z,101589.22
2018-10-12T21:00:57.201Z,101588.52
2018-10-12T21:03:23.194Z,101582.52
2018-10-12T21:05:49.188Z,101590.45
2018-10-12T21:08:15.169Z,101594.30
2018-10-12T21:10:41.147Z,101592.59
2018-10-12T21:13:07.141Z,101588.78
2018-10-12T21:15:33.163Z,101594.75
2018-10-12T21:17:59.242Z,101592.59
2018-10-12T21:20:25.239Z,101586.36
2018-10-12T21:22:51.211Z,101592.48
2018-10-12T21:25:17.177Z,101591.65
2018-10-12T21:27:44.191Z,101592.59
2018-10-12T21:30:10.145Z,101592.59
2018-10-12T21:32:36.146Z,101593.43
2018-10-12T21:35:02.143Z,101586.70
2018-10-12T21:37:28.208Z,101580.42
2018-10-12T21:39:54.228Z,101577.10
2018-10-12T21:42:20.222Z,101585.03
2018-10-12T21:44:46.189Z,101584.55
2018-10-12T21:47:12.156Z,101585.50
2018-10-12T21:49:38.146Z,101585.28
2018-10-12T21:52:04.112Z,101592.59
2018-10-12T21:54:30.082Z,101593.31
2018-10-12T21:56:56.074Z,101588.52
2018-10-12T21:59:22.093Z,101584.17
2018-10-12T22:01:48.096Z,101587.31
2018-10-12T22:04:14.118Z,101582.02
2018-10-12T22:06:40.098Z,101587.31
2018-10-12T22:09:06.176Z,101584.66
2018-10-12T22:11:32.192Z,101582.17
2018-10-12T22:13:58.339Z,101585.16
2018-10-12T22:16:24.247Z,101579.98
2018-10-12T22:18:50.284Z,101584.66
2018-10-12T22:21:16.288Z,101584.05
2018-10-12T22:23:42.270Z,101577.10
2018-10-12T22:26:08.340Z,101581.07
2018-10-12T22:28:34.271Z,101582.39
2018-10-12T22:31:00.285Z,101572.77
2018-10-12T22:33:26.260Z,101570.83
2018-10-12T22:35:52.307Z,101563.52
2018-10-12T22:38:18.343Z,101570.61
2018-10-12T22:40:44.318Z,101561.70
2018-10-12T22:43:10.281Z,101555.73
2018-10-12T22:45:36.383Z,101558.84
2018-10-12T22:48:02.380Z,101558.00
2018-10-12T22:50:28.353Z,101557.39
2018-10-12T22:52:54.312Z,101558.59
2018-10-12T22:55:20.290Z,101555.73
2018-10-12T22:57:47.335Z,101553.09
2018-10-12T23:00:13.328Z,101554.26
2018-10-12T23:02:39.339Z,101553.42
2018-10-12T23:05:05.301Z,101554.63
2018-10-12T23:07:31.286Z,101552.44
2018-10-12T23:09:57.274Z,101551.00
2018-10-12T23:12:23.277Z,101555.80
2018-10-12T23:14:49.262Z,101549.67
2018-10-12T23:17:15.249Z,101548.84
2018-10-12T23:19:41.239Z,101553.77
2018-10-12T23:22:07.263Z,101553.09
2018-10-12T23:24:33.311Z,101543.68
2018-10-12T23:26:59.277Z,101537.68
2018-10-12T23:29:25.281Z,101544.51
2018-10-12T23:31:51.278Z,101542.84
2018-10-12T23:34:17.215Z,101538.39
2018-10-12T23:36:43.265Z,101535.03
2018-10-12T23:39:09.248Z,101542.23
2018-10-12T23:41:35.264Z,101540.91
2018-10-12T23:44:01.251Z,101536.45
2018-10-12T23:46:27.217Z,101538.27
2018-10-12T23:48:53.224Z,101539.86
2018-10-12T23:51:19.178Z,101536.95
2018-10-12T23:53:46.168Z,101541.62
2018-10-12T23:56:12.142Z,101539.80
2018-10-12T23:58:38.134Z,101544.38
